Back to Top

Language: 

My Weather Underground Personal Weather Station Historical Data with Graphs...

Delerius Weather Station Historical Data
 
Daily Summary for May 26, 2018 Units:  Both    English   Metric
« Previous Day
Next Day »
Daily Weekly Monthly Yearly Custom
  Current: High: Low: Average:
Temperature: 64.8 °F /  18.2 °C 64.8 °F /  18.2 °C 52.2 °F /  11.2 °C 54.9 °F /  12.7 °C
Dew Point: 55.5 °F /  13.1 °C 55.9 °F /  13.3 °C 51.1 °F /  10.6 °C 52.5 °F /  11.4 °C
Humidity: 72 % 97 % 72 % 92 %
Wind Speed: 8.0 mph /  12.9 km/h 9.0 mph /  14.5 km/h - 4.8 mph /  7.7 km/h
Wind Gust: 13.0 mph /  20.9 km/h 16.0 mph /  25.7 km/h - -
Wind:NE - - SE
Pressure: 30.23 in /  1023.6 hPa 30.23 in /  1023.6 hPa 30.19 in /  1022.2 hPa -
Precipitation: 0.00 in /  0 mm      
Historical Graphs
 
 
Tabular Data for May 26, 2018
Time Temperature Dew Point Pressure Wind Wind Speed Wind Gust Humidity Rainfall Rate (Hourly) solar Conditions
00:01 53.8 °F /  12.1 °C 52.9 °F /  11.6 °C 30.20 in /  1022.6 hPa ENE 1.0 mph /  1.6 km/h 4.0 mph /  6.4 km/h 97 % 0.00 in /  0 mm 0 W/m2
00:04 53.8 °F /  12.1 °C 52.9 °F /  11.6 °C 30.20 in /  1022.6 hPa ENE 1.0 mph /  1.6 km/h 5.0 mph /  8 km/h 97 % 0.00 in /  0 mm 0 W/m2
00:09 53.8 °F /  12.1 °C 52.9 °F /  11.6 °C 30.20 in /  1022.6 hPa NE 4.0 mph /  6.4 km/h 7.0 mph /  11.3 km/h 97 % 0.00 in /  0 mm 0 W/m2
00:14 53.8 °F /  12.1 °C 52.9 °F /  11.6 °C 30.20 in /  1022.6 hPa NE 1.0 mph /  1.6 km/h 5.0 mph /  8 km/h 97 % 0.00 in /  0 mm 0 W/m2
00:19 53.8 °F /  12.1 °C 52.9 °F /  11.6 °C 30.19 in /  1022.2 hPa NNE 5.0 mph /  8 km/h 8.0 mph /  12.9 km/h 97 % 0.00 in /  0 mm 0 W/m2
00:24 53.8 °F /  12.1 °C 52.9 °F /  11.6 °C 30.19 in /  1022.2 hPa NNE 6.0 mph /  9.7 km/h 9.0 mph /  14.5 km/h 97 % 0.00 in /  0 mm 0 W/m2
00:29 53.8 °F /  12.1 °C 52.9 °F /  11.6 °C 30.19 in /  1022.2 hPa NNE 6.0 mph /  9.7 km/h 10.0 mph /  16.1 km/h 97 % 0.00 in /  0 mm 0 W/m2
00:34 53.8 °F /  12.1 °C 52.9 °F /  11.6 °C 30.19 in /  1022.2 hPa NNE 5.0 mph /  8 km/h 8.0 mph /  12.9 km/h 97 % 0.00 in /  0 mm 0 W/m2
00:39 53.8 °F /  12.1 °C 52.9 °F /  11.6 °C 30.19 in /  1022.2 hPa North 5.0 mph /  8 km/h 9.0 mph /  14.5 km/h 97 % 0.00 in /  0 mm 0 W/m2
00:44 53.8 °F /  12.1 °C 52.9 °F /  11.6 °C 30.19 in /  1022.2 hPa NNE 6.0 mph /  9.7 km/h 9.0 mph /  14.5 km/h 97 % 0.00 in /  0 mm 0 W/m2
00:49 53.8 °F /  12.1 °C 52.9 °F /  11.6 °C 30.20 in /  1022.6 hPa NNE 5.0 mph /  8 km/h 9.0 mph /  14.5 km/h 97 % 0.00 in /  0 mm 0 W/m2
00:54 53.8 °F /  12.1 °C 52.9 °F /  11.6 °C 30.20 in /  1022.6 hPa NNE 3.0 mph /  4.8 km/h 8.0 mph /  12.9 km/h 97 % 0.00 in /  0 mm 0 W/m2
00:59 53.8 °F /  12.1 °C 52.9 °F /  11.6 °C 30.19 in /  1022.2 hPa NNE 5.0 mph /  8 km/h 9.0 mph /  14.5 km/h 97 % 0.00 in /  0 mm 0 W/m2
01:04 53.8 °F /  12.1 °C 52.9 °F /  11.6 °C 30.20 in /  1022.6 hPa North 4.0 mph /  6.4 km/h 8.0 mph /  12.9 km/h 97 % 0.00 in /  0 mm 0 W/m2
01:09 53.8 °F /  12.1 °C 52.9 °F /  11.6 °C 30.20 in /  1022.6 hPa NNE 3.0 mph /  4.8 km/h 7.0 mph /  11.3 km/h 97 % 0.00 in /  0 mm 0 W/m2
01:14 53.8 °F /  12.1 °C 52.9 °F /  11.6 °C 30.20 in /  1022.6 hPa NNE 2.0 mph /  3.2 km/h 7.0 mph /  11.3 km/h 97 % 0.00 in /  0 mm 0 W/m2
01:19 53.8 °F /  12.1 °C 52.9 °F /  11.6 °C 30.20 in /  1022.6 hPa NNE 2.0 mph /  3.2 km/h 10.0 mph /  16.1 km/h 97 % 0.00 in /  0 mm 0 W/m2
01:24 53.8 °F /  12.1 °C 52.9 °F /  11.6 °C 30.20 in /  1022.6 hPa NNE 6.0 mph /  9.7 km/h 9.0 mph /  14.5 km/h 97 % 0.00 in /  0 mm 0 W/m2
01:29 53.8 °F /  12.1 °C 52.9 °F /  11.6 °C 30.20 in /  1022.6 hPa North 4.0 mph /  6.4 km/h 8.0 mph /  12.9 km/h 97 % 0.00 in /  0 mm 0 W/m2
01:34 53.8 °F /  12.1 °C 52.9 °F /  11.6 °C 30.20 in /  1022.6 hPa NE 1.0 mph /  1.6 km/h 6.0 mph /  9.7 km/h 97 % 0.00 in /  0 mm 0 W/m2
01:39 53.8 °F /  12.1 °C 52.9 °F /  11.6 °C 30.20 in /  1022.6 hPa North 5.0 mph /  8 km/h 9.0 mph /  14.5 km/h 97 % 0.00 in /  0 mm 0 W/m2
01:44 53.8 °F /  12.1 °C 52.9 °F /  11.6 °C 30.20 in /  1022.6 hPa NNE 4.0 mph /  6.4 km/h 13.0 mph /  20.9 km/h 97 % 0.00 in /  0 mm 0 W/m2
01:49 53.6 °F /  12 °C 52.8 °F /  11.6 °C 30.20 in /  1022.6 hPa NNE 6.0 mph /  9.7 km/h 8.0 mph /  12.9 km/h 97 % 0.00 in /  0 mm 0 W/m2
01:54 53.6 °F /  12 °C 52.8 °F /  11.6 °C 30.20 in /  1022.6 hPa North 7.0 mph /  11.3 km/h 12.0 mph /  19.3 km/h 97 % 0.00 in /  0 mm 0 W/m2
01:59 53.4 °F /  11.9 °C 52.6 °F /  11.4 °C 30.20 in /  1022.6 hPa North 6.0 mph /  9.7 km/h 10.0 mph /  16.1 km/h 97 % 0.00 in /  0 mm 0 W/m2
02:04 53.4 °F /  11.9 °C 52.6 °F /  11.4 °C 30.20 in /  1022.6 hPa North 6.0 mph /  9.7 km/h 13.0 mph /  20.9 km/h 97 % 0.00 in /  0 mm 0 W/m2
02:09 53.2 °F /  11.8 °C 52.4 °F /  11.3 °C 30.20 in /  1022.6 hPa North 6.0 mph /  9.7 km/h 11.0 mph /  17.7 km/h 97 % 0.00 in /  0 mm 0 W/m2
02:14 53.2 °F /  11.8 °C 52.4 °F /  11.3 °C 30.20 in /  1022.6 hPa North 6.0 mph /  9.7 km/h 10.0 mph /  16.1 km/h 97 % 0.00 in /  0 mm 0 W/m2
02:19 53.1 °F /  11.7 °C 52.2 °F /  11.2 °C 30.20 in /  1022.6 hPa North 6.0 mph /  9.7 km/h 11.0 mph /  17.7 km/h 97 % 0.00 in /  0 mm 0 W/m2
02:24 53.1 °F /  11.7 °C 52.2 °F /  11.2 °C 30.20 in /  1022.6 hPa NNE 6.0 mph /  9.7 km/h 10.0 mph /  16.1 km/h 97 % 0.00 in /  0 mm 0 W/m2
02:29 53.1 °F /  11.7 °C 52.2 °F /  11.2 °C 30.20 in /  1022.6 hPa NNE 6.0 mph /  9.7 km/h 11.0 mph /  17.7 km/h 97 % 0.00 in /  0 mm 0 W/m2
02:34 53.2 °F /  11.8 °C 52.4 °F /  11.3 °C 30.20 in /  1022.6 hPa North 2.0 mph /  3.2 km/h 10.0 mph /  16.1 km/h 97 % 0.00 in /  0 mm 0 W/m2
02:39 53.1 °F /  11.7 °C 52.2 °F /  11.2 °C 30.20 in /  1022.6 hPa North 3.0 mph /  4.8 km/h 8.0 mph /  12.9 km/h 97 % 0.00 in /  0 mm 0 W/m2
02:44 53.1 °F /  11.7 °C 52.2 °F /  11.2 °C 30.20 in /  1022.6 hPa North 5.0 mph /  8 km/h 10.0 mph /  16.1 km/h 97 % 0.00 in /  0 mm 0 W/m2
02:49 53.1 °F /  11.7 °C 52.2 °F /  11.2 °C 30.20 in /  1022.6 hPa North 6.0 mph /  9.7 km/h 9.0 mph /  14.5 km/h 97 % 0.00 in /  0 mm 0 W/m2
02:54 53.1 °F /  11.7 °C 52.2 °F /  11.2 °C 30.20 in /  1022.6 hPa North 5.0 mph /  8 km/h 10.0 mph /  16.1 km/h 97 % 0.00 in /  0 mm 0 W/m2
02:59 53.1 °F /  11.7 °C 52.0 °F /  11.1 °C 30.20 in /  1022.6 hPa NE 2.0 mph /  3.2 km/h 5.0 mph /  8 km/h 96 % 0.00 in /  0 mm 0 W/m2
03:04 53.1 °F /  11.7 °C 52.0 °F /  11.1 °C 30.20 in /  1022.6 hPa North 3.0 mph /  4.8 km/h 7.0 mph /  11.3 km/h 96 % 0.00 in /  0 mm 0 W/m2
03:10 53.1 °F /  11.7 °C 52.0 °F /  11.1 °C 30.20 in /  1022.6 hPa North 6.0 mph /  9.7 km/h 10.0 mph /  16.1 km/h 96 % 0.00 in /  0 mm 0 W/m2
03:15 53.1 °F /  11.7 °C 52.0 °F /  11.1 °C 30.20 in /  1022.6 hPa North 5.0 mph /  8 km/h 8.0 mph /  12.9 km/h 96 % 0.00 in /  0 mm 0 W/m2
03:20 53.1 °F /  11.7 °C 52.0 °F /  11.1 °C 30.20 in /  1022.6 hPa North 6.0 mph /  9.7 km/h 8.0 mph /  12.9 km/h 96 % 0.00 in /  0 mm 0 W/m2
03:25 53.1 °F /  11.7 °C 52.0 °F /  11.1 °C 30.20 in /  1022.6 hPa North 5.0 mph /  8 km/h 9.0 mph /  14.5 km/h 96 % 0.00 in /  0 mm 0 W/m2
03:30 53.1 °F /  11.7 °C 52.0 °F /  11.1 °C 30.20 in /  1022.6 hPa NNW 5.0 mph /  8 km/h 7.0 mph /  11.3 km/h 96 % 0.00 in /  0 mm 0 W/m2
03:35 53.1 °F /  11.7 °C 52.0 °F /  11.1 °C 30.20 in /  1022.6 hPa NNW 5.0 mph /  8 km/h 8.0 mph /  12.9 km/h 96 % 0.00 in /  0 mm 0 W/m2
03:40 52.9 °F /  11.6 °C 51.8 °F /  11 °C 30.20 in /  1022.6 hPa NNE 3.0 mph /  4.8 km/h 7.0 mph /  11.3 km/h 96 % 0.00 in /  0 mm 0 W/m2
03:45 52.9 °F /  11.6 °C 51.8 °F /  11 °C 30.20 in /  1022.6 hPa North 4.0 mph /  6.4 km/h 7.0 mph /  11.3 km/h 96 % 0.00 in /  0 mm 0 W/m2
03:50 52.9 °F /  11.6 °C 51.8 °F /  11 °C 30.20 in /  1022.6 hPa North 5.0 mph /  8 km/h 10.0 mph /  16.1 km/h 96 % 0.00 in /  0 mm 0 W/m2
03:55 52.9 °F /  11.6 °C 51.8 °F /  11 °C 30.20 in /  1022.6 hPa NNE 2.0 mph /  3.2 km/h 5.0 mph /  8 km/h 96 % 0.00 in /  0 mm 0 W/m2
04:00 52.9 °F /  11.6 °C 51.8 °F /  11 °C 30.20 in /  1022.6 hPa North 4.0 mph /  6.4 km/h 8.0 mph /  12.9 km/h 96 % 0.00 in /  0 mm 0 W/m2
04:05 52.9 °F /  11.6 °C 52.1 °F /  11.2 °C 30.20 in /  1022.6 hPa North 5.0 mph /  8 km/h 9.0 mph /  14.5 km/h 97 % 0.00 in /  0 mm 0 W/m2
04:10 52.7 °F /  11.5 °C 51.9 °F /  11.1 °C 30.20 in /  1022.6 hPa Calm   4.0 mph /  6.4 km/h 97 % 0.00 in /  0 mm 0 W/m2
04:15 52.7 °F /  11.5 °C 51.9 °F /  11.1 °C 30.20 in /  1022.6 hPa North 7.0 mph /  11.3 km/h 10.0 mph /  16.1 km/h 97 % 0.00 in /  0 mm 0 W/m2
04:20 52.7 °F /  11.5 °C 51.9 °F /  11.1 °C 30.20 in /  1022.6 hPa NNE 3.0 mph /  4.8 km/h 8.0 mph /  12.9 km/h 97 % 0.00 in /  0 mm 0 W/m2
04:25 52.7 °F /  11.5 °C 51.9 °F /  11.1 °C 30.20 in /  1022.6 hPa North 2.0 mph /  3.2 km/h 8.0 mph /  12.9 km/h 97 % 0.00 in /  0 mm 0 W/m2
04:30 52.7 °F /  11.5 °C 51.9 °F /  11.1 °C 30.20 in /  1022.6 hPa North 3.0 mph /  4.8 km/h 9.0 mph /  14.5 km/h 97 % 0.00 in /  0 mm 0 W/m2
04:35 52.7 °F /  11.5 °C 51.9 °F /  11.1 °C 30.20 in /  1022.6 hPa NNW 4.0 mph /  6.4 km/h 7.0 mph /  11.3 km/h 97 % 0.00 in /  0 mm 0 W/m2
04:40 52.7 °F /  11.5 °C 51.9 °F /  11.1 °C 30.20 in /  1022.6 hPa NNW 6.0 mph /  9.7 km/h 9.0 mph /  14.5 km/h 97 % 0.00 in /  0 mm 0 W/m2
04:45 52.7 °F /  11.5 °C 51.9 °F /  11.1 °C 30.20 in /  1022.6 hPa NNW 4.0 mph /  6.4 km/h 8.0 mph /  12.9 km/h 97 % 0.00 in /  0 mm 0 W/m2
04:50 52.7 °F /  11.5 °C 51.9 °F /  11.1 °C 30.20 in /  1022.6 hPa North 6.0 mph /  9.7 km/h 11.0 mph /  17.7 km/h 97 % 0.00 in /  0 mm 0 W/m2
04:55 52.7 °F /  11.5 °C 51.9 °F /  11.1 °C 30.20 in /  1022.6 hPa NNW 6.0 mph /  9.7 km/h 11.0 mph /  17.7 km/h 97 % 0.00 in /  0 mm 0 W/m2
05:00 52.7 °F /  11.5 °C 51.9 °F /  11.1 °C 30.20 in /  1022.6 hPa NNW 4.0 mph /  6.4 km/h 9.0 mph /  14.5 km/h 97 % 0.00 in /  0 mm 5 W/m2
05:05 52.5 °F /  11.4 °C 51.7 °F /  10.9 °C 30.20 in /  1022.6 hPa North 4.0 mph /  6.4 km/h 8.0 mph /  12.9 km/h 97 % 0.00 in /  0 mm 7 W/m2
05:10 52.5 °F /  11.4 °C 51.7 °F /  10.9 °C 30.20 in /  1022.6 hPa NNW 5.0 mph /  8 km/h 9.0 mph /  14.5 km/h 97 % 0.00 in /  0 mm 9 W/m2
05:15 52.5 °F /  11.4 °C 51.7 °F /  10.9 °C 30.20 in /  1022.6 hPa NNW 5.0 mph /  8 km/h 10.0 mph /  16.1 km/h 97 % 0.00 in /  0 mm 12 W/m2
05:20 52.5 °F /  11.4 °C 51.7 °F /  10.9 °C 30.20 in /  1022.6 hPa NNW 2.0 mph /  3.2 km/h 7.0 mph /  11.3 km/h 97 % 0.00 in /  0 mm 16 W/m2
05:25 52.5 °F /  11.4 °C 51.4 °F /  10.8 °C 30.20 in /  1022.6 hPa NNW 3.0 mph /  4.8 km/h 9.0 mph /  14.5 km/h 96 % 0.00 in /  0 mm 18 W/m2
05:30 52.3 °F /  11.3 °C 51.2 °F /  10.7 °C 30.20 in /  1022.6 hPa NNW 5.0 mph /  8 km/h 10.0 mph /  16.1 km/h 96 % 0.00 in /  0 mm 21 W/m2
05:35 52.3 °F /  11.3 °C 51.2 °F /  10.7 °C 30.20 in /  1022.6 hPa NNW 5.0 mph /  8 km/h 8.0 mph /  12.9 km/h 96 % 0.00 in /  0 mm 21 W/m2
05:40 52.3 °F /  11.3 °C 51.2 °F /  10.7 °C 30.20 in /  1022.6 hPa NNW 6.0 mph /  9.7 km/h 9.0 mph /  14.5 km/h 96 % 0.00 in /  0 mm 23 W/m2
05:45 52.3 °F /  11.3 °C 51.2 °F /  10.7 °C 30.21 in /  1022.9 hPa NNW 4.0 mph /  6.4 km/h 10.0 mph /  16.1 km/h 96 % 0.00 in /  0 mm 25 W/m2
05:50 52.2 °F /  11.2 °C 51.1 °F /  10.6 °C 30.20 in /  1022.6 hPa NNW 3.0 mph /  4.8 km/h 11.0 mph /  17.7 km/h 96 % 0.00 in /  0 mm 28 W/m2
05:55 52.2 °F /  11.2 °C 51.1 °F /  10.6 °C 30.21 in /  1022.9 hPa NNW 7.0 mph /  11.3 km/h 11.0 mph /  17.7 km/h 96 % 0.00 in /  0 mm 33 W/m2
06:01 52.2 °F /  11.2 °C 51.1 °F /  10.6 °C 30.20 in /  1022.6 hPa NNW 4.0 mph /  6.4 km/h 9.0 mph /  14.5 km/h 96 % 0.00 in /  0 mm 39 W/m2
06:06 52.2 °F /  11.2 °C 51.1 °F /  10.6 °C 30.20 in /  1022.6 hPa NNW 4.0 mph /  6.4 km/h 9.0 mph /  14.5 km/h 96 % 0.00 in /  0 mm 47 W/m2
06:11 52.2 °F /  11.2 °C 51.1 °F /  10.6 °C 30.21 in /  1022.9 hPa North 4.0 mph /  6.4 km/h 9.0 mph /  14.5 km/h 96 % 0.00 in /  0 mm 54 W/m2
06:16 52.2 °F /  11.2 °C 51.1 °F /  10.6 °C 30.20 in /  1022.6 hPa NNW 4.0 mph /  6.4 km/h 9.0 mph /  14.5 km/h 96 % 0.00 in /  0 mm 63 W/m2
06:21 52.2 °F /  11.2 °C 51.1 °F /  10.6 °C 30.21 in /  1022.9 hPa NNW 5.0 mph /  8 km/h 11.0 mph /  17.7 km/h 96 % 0.00 in /  0 mm 62 W/m2
06:26 52.2 °F /  11.2 °C 51.1 °F /  10.6 °C 30.21 in /  1022.9 hPa NNW 5.0 mph /  8 km/h 9.0 mph /  14.5 km/h 96 % 0.00 in /  0 mm 58 W/m2
06:31 52.2 °F /  11.2 °C 51.1 °F /  10.6 °C 30.21 in /  1022.9 hPa NNW 6.0 mph /  9.7 km/h 11.0 mph /  17.7 km/h 96 % 0.00 in /  0 mm 65 W/m2
06:36 52.3 °F /  11.3 °C 51.2 °F /  10.7 °C 30.21 in /  1022.9 hPa NNW 5.0 mph /  8 km/h 8.0 mph /  12.9 km/h 96 % 0.00 in /  0 mm 74 W/m2
06:41 52.3 °F /  11.3 °C 51.2 °F /  10.7 °C 30.21 in /  1022.9 hPa North 4.0 mph /  6.4 km/h 7.0 mph /  11.3 km/h 96 % 0.00 in /  0 mm 93 W/m2
06:46 52.3 °F /  11.3 °C 51.2 °F /  10.7 °C 30.21 in /  1022.9 hPa North 3.0 mph /  4.8 km/h 8.0 mph /  12.9 km/h 96 % 0.00 in /  0 mm 107 W/m2
06:51 52.5 °F /  11.4 °C 51.4 °F /  10.8 °C 30.21 in /  1022.9 hPa NNW 4.0 mph /  6.4 km/h 8.0 mph /  12.9 km/h 96 % 0.00 in /  0 mm 118 W/m2
06:56 52.5 °F /  11.4 °C 51.4 °F /  10.8 °C 30.21 in /  1022.9 hPa North 4.0 mph /  6.4 km/h 8.0 mph /  12.9 km/h 96 % 0.00 in /  0 mm 116 W/m2
07:01 52.5 °F /  11.4 °C 51.4 °F /  10.8 °C 30.21 in /  1022.9 hPa NNE 5.0 mph /  8 km/h 10.0 mph /  16.1 km/h 96 % 0.00 in /  0 mm 118 W/m2
07:06 52.9 °F /  11.6 °C 51.8 °F /  11 °C 30.21 in /  1022.9 hPa North 4.0 mph /  6.4 km/h 7.0 mph /  11.3 km/h 96 % 0.00 in /  0 mm 125 W/m2
07:11 52.9 °F /  11.6 °C 51.8 °F /  11 °C 30.22 in /  1023.2 hPa NNW 4.0 mph /  6.4 km/h 7.0 mph /  11.3 km/h 96 % 0.00 in /  0 mm 128 W/m2
07:16 53.1 °F /  11.7 °C 52.0 °F /  11.1 °C 30.22 in /  1023.2 hPa North 5.0 mph /  8 km/h 8.0 mph /  12.9 km/h 96 % 0.00 in /  0 mm 160 W/m2
07:21 53.1 °F /  11.7 °C 51.7 °F /  10.9 °C 30.23 in /  1023.6 hPa North 4.0 mph /  6.4 km/h 8.0 mph /  12.9 km/h 95 % 0.00 in /  0 mm 156 W/m2
07:26 53.2 °F /  11.8 °C 51.8 °F /  11 °C 30.23 in /  1023.6 hPa NNE 1.0 mph /  1.6 km/h 6.0 mph /  9.7 km/h 95 % 0.00 in /  0 mm 163 W/m2
07:31 53.6 °F /  12 °C 52.2 °F /  11.2 °C 30.23 in /  1023.6 hPa North 6.0 mph /  9.7 km/h 10.0 mph /  16.1 km/h 95 % 0.00 in /  0 mm 239 W/m2
07:36 53.8 °F /  12.1 °C 52.4 °F /  11.3 °C 30.23 in /  1023.6 hPa North 6.0 mph /  9.7 km/h 9.0 mph /  14.5 km/h 95 % 0.00 in /  0 mm 262 W/m2
07:41 54.1 °F /  12.3 °C 52.5 °F /  11.4 °C 30.22 in /  1023.2 hPa NNE 4.0 mph /  6.4 km/h 8.0 mph /  12.9 km/h 94 % 0.00 in /  0 mm 295 W/m2
07:46 54.5 °F /  12.5 °C 52.8 °F /  11.6 °C 30.22 in /  1023.2 hPa North 5.0 mph /  8 km/h 11.0 mph /  17.7 km/h 94 % 0.00 in /  0 mm 253 W/m2
07:51 54.9 °F /  12.7 °C 52.9 °F /  11.6 °C 30.23 in /  1023.6 hPa NNE 4.0 mph /  6.4 km/h 8.0 mph /  12.9 km/h 93 % 0.00 in /  0 mm 248 W/m2
07:56 54.9 °F /  12.7 °C 52.6 °F /  11.4 °C 30.23 in /  1023.6 hPa NNE 7.0 mph /  11.3 km/h 10.0 mph /  16.1 km/h 92 % 0.00 in /  0 mm 278 W/m2
08:01 55.2 °F /  12.9 °C 52.6 °F /  11.4 °C 30.23 in /  1023.6 hPa NE 5.0 mph /  8 km/h 9.0 mph /  14.5 km/h 91 % 0.00 in /  0 mm 248 W/m2
08:06 55.6 °F /  13.1 °C 53.0 °F /  11.7 °C 30.23 in /  1023.6 hPa North 5.0 mph /  8 km/h 8.0 mph /  12.9 km/h 91 % 0.00 in /  0 mm 360 W/m2
08:11 56.1 °F /  13.4 °C 53.2 °F /  11.8 °C 30.23 in /  1023.6 hPa NE 1.0 mph /  1.6 km/h 5.0 mph /  8 km/h 90 % 0.00 in /  0 mm 388 W/m2
08:16 56.7 °F /  13.7 °C 53.1 °F /  11.7 °C 30.23 in /  1023.6 hPa NE 4.0 mph /  6.4 km/h 9.0 mph /  14.5 km/h 88 % 0.00 in /  0 mm 431 W/m2
08:21 57.0 °F /  13.9 °C 52.9 °F /  11.6 °C 30.23 in /  1023.6 hPa NNE 7.0 mph /  11.3 km/h 12.0 mph /  19.3 km/h 86 % 0.00 in /  0 mm 471 W/m2
08:26 57.6 °F /  14.2 °C 53.1 °F /  11.7 °C 30.23 in /  1023.6 hPa NE 5.0 mph /  8 km/h 9.0 mph /  14.5 km/h 85 % 0.00 in /  0 mm 469 W/m2
08:31 57.9 °F /  14.4 °C 52.8 °F /  11.6 °C 30.23 in /  1023.6 hPa NE 6.0 mph /  9.7 km/h 11.0 mph /  17.7 km/h 83 % 0.00 in /  0 mm 454 W/m2
08:36 58.3 °F /  14.6 °C 52.8 °F /  11.6 °C 30.23 in /  1023.6 hPa NNE 9.0 mph /  14.5 km/h 13.0 mph /  20.9 km/h 82 % 0.00 in /  0 mm 457 W/m2
08:41 58.3 °F /  14.6 °C 52.5 °F /  11.4 °C 30.23 in /  1023.6 hPa NE 6.0 mph /  9.7 km/h 10.0 mph /  16.1 km/h 81 % 0.00 in /  0 mm 360 W/m2
08:46 58.3 °F /  14.6 °C 52.5 °F /  11.4 °C 30.23 in /  1023.6 hPa NNE 7.0 mph /  11.3 km/h 11.0 mph /  17.7 km/h 81 % 0.00 in /  0 mm 396 W/m2
08:51 58.3 °F /  14.6 °C 52.5 °F /  11.4 °C 30.23 in /  1023.6 hPa NE 2.0 mph /  3.2 km/h 6.0 mph /  9.7 km/h 81 % 0.00 in /  0 mm 255 W/m2
08:53 58.5 °F /  14.7 °C 52.6 °F /  11.4 °C 30.23 in /  1023.6 hPa NNE 4.0 mph /  6.4 km/h 12.0 mph /  19.3 km/h 81 % 0.00 in /  0 mm 234 W/m2
08:58 58.5 °F /  14.7 °C 52.6 °F /  11.4 °C 30.23 in /  1023.6 hPa NNE 4.0 mph /  6.4 km/h 11.0 mph /  17.7 km/h 81 % 0.00 in /  0 mm 279 W/m2
09:03 58.5 °F /  14.7 °C 52.3 °F /  11.3 °C 30.23 in /  1023.6 hPa NE 6.0 mph /  9.7 km/h 11.0 mph /  17.7 km/h 80 % 0.00 in /  0 mm 332 W/m2
09:08 58.5 °F /  14.7 °C 52.3 °F /  11.3 °C 30.23 in /  1023.6 hPa NE 5.0 mph /  8 km/h 11.0 mph /  17.7 km/h 80 % 0.00 in /  0 mm 399 W/m2
09:13 58.6 °F /  14.8 °C 52.8 °F /  11.6 °C 30.23 in /  1023.6 hPa NE 5.0 mph /  8 km/h 12.0 mph /  19.3 km/h 81 % 0.00 in /  0 mm 387 W/m2
09:18 58.6 °F /  14.8 °C 52.5 °F /  11.4 °C 30.23 in /  1023.6 hPa NE 8.0 mph /  12.9 km/h 12.0 mph /  19.3 km/h 80 % 0.00 in /  0 mm 446 W/m2
09:23 58.8 °F /  14.9 °C 52.7 °F /  11.5 °C 30.23 in /  1023.6 hPa NNE 8.0 mph /  12.9 km/h 12.0 mph /  19.3 km/h 80 % 0.00 in /  0 mm 483 W/m2
09:27 59.0 °F /  15 °C 52.8 °F /  11.6 °C 30.23 in /  1023.6 hPa North 6.0 mph /  9.7 km/h 10.0 mph /  16.1 km/h 80 % 0.00 in /  0 mm 675 W/m2
09:32 59.7 °F /  15.4 °C 53.9 °F /  12.2 °C 30.23 in /  1023.6 hPa ENE 1.0 mph /  1.6 km/h 7.0 mph /  11.3 km/h 81 % 0.00 in /  0 mm 380 W/m2
09:37 60.3 °F /  15.7 °C 53.7 °F /  12.1 °C 30.23 in /  1023.6 hPa NE 4.0 mph /  6.4 km/h 8.0 mph /  12.9 km/h 79 % 0.00 in /  0 mm 396 W/m2
09:42 60.3 °F /  15.7 °C 53.4 °F /  11.9 °C 30.23 in /  1023.6 hPa NE 4.0 mph /  6.4 km/h 8.0 mph /  12.9 km/h 78 % 0.00 in /  0 mm 401 W/m2
09:47 60.3 °F /  15.7 °C 53.7 °F /  12.1 °C 30.23 in /  1023.6 hPa NNE 5.0 mph /  8 km/h 10.0 mph /  16.1 km/h 79 % 0.00 in /  0 mm 670 W/m2
09:52 60.4 °F /  15.8 °C 53.5 °F /  11.9 °C 30.23 in /  1023.6 hPa NNE 8.0 mph /  12.9 km/h 13.0 mph /  20.9 km/h 78 % 0.00 in /  0 mm 390 W/m2
09:55 60.4 °F /  15.8 °C 53.9 °F /  12.2 °C 30.23 in /  1023.6 hPa NE 8.0 mph /  12.9 km/h 14.0 mph /  22.5 km/h 79 % 0.00 in /  0 mm 761 W/m2
10:00 60.8 °F /  16 °C 54.2 °F /  12.3 °C 30.23 in /  1023.6 hPa NE 6.0 mph /  9.7 km/h 15.0 mph /  24.1 km/h 79 % 0.00 in /  0 mm 708 W/m2
10:05 61.3 °F /  16.3 °C 54.4 °F /  12.4 °C 30.23 in /  1023.6 hPa NE 7.0 mph /  11.3 km/h 13.0 mph /  20.9 km/h 78 % 0.00 in /  0 mm 747 W/m2
10:10 62.1 °F /  16.7 °C 54.8 °F /  12.7 °C 30.23 in /  1023.6 hPa NNE 8.0 mph /  12.9 km/h 13.0 mph /  20.9 km/h 77 % 0.00 in /  0 mm 780 W/m2
10:15 62.4 °F /  16.9 °C 54.8 °F /  12.7 °C 30.23 in /  1023.6 hPa NNE 6.0 mph /  9.7 km/h 12.0 mph /  19.3 km/h 76 % 0.00 in /  0 mm 561 W/m2
10:20 63.0 °F /  17.2 °C 55.3 °F /  12.9 °C 30.23 in /  1023.6 hPa NE 9.0 mph /  14.5 km/h 16.0 mph /  25.7 km/h 76 % 0.00 in /  0 mm 840 W/m2
10:25 63.5 °F /  17.5 °C 55.4 °F /  13 °C 30.23 in /  1023.6 hPa NE 6.0 mph /  9.7 km/h 13.0 mph /  20.9 km/h 75 % 0.00 in /  0 mm 856 W/m2
10:30 63.9 °F /  17.7 °C 55.4 °F /  13 °C 30.23 in /  1023.6 hPa ENE 5.0 mph /  8 km/h 10.0 mph /  16.1 km/h 74 % 0.00 in /  0 mm 729 W/m2
10:35 64.4 °F /  18 °C 55.9 °F /  13.3 °C 30.23 in /  1023.6 hPa NE 6.0 mph /  9.7 km/h 10.0 mph /  16.1 km/h 74 % 0.00 in /  0 mm 751 W/m2
10:40 64.6 °F /  18.1 °C 55.3 °F /  12.9 °C 30.23 in /  1023.6 hPa ENE 7.0 mph /  11.3 km/h 15.0 mph /  24.1 km/h 72 % 0.00 in /  0 mm 751 W/m2
10:45 64.8 °F /  18.2 °C 55.5 °F /  13.1 °C 30.23 in /  1023.6 hPa ENE 6.0 mph /  9.7 km/h 10.0 mph /  16.1 km/h 72 % 0.00 in /  0 mm 752 W/m2
10:50 64.8 °F /  18.2 °C 55.5 °F /  13.1 °C 30.23 in /  1023.6 hPa NE 8.0 mph /  12.9 km/h 13.0 mph /  20.9 km/h 72 % 0.00 in /  0 mm 649 W/m2
Delerius-Weather
Compliments of Weather Underground - 1.5 mb

Data updates at regular intervals.